sensor_id;sensor_type;location;lat;lon;timestamp;P1;durP1;ratioP1;P2;durP2;ratioP2
46701;SDS011;33449;50.712;7.124;2023-02-08T00:42:24;27.45;;;13.48;;
46701;SDS011;33449;50.712;7.124;2023-02-08T00:47:44;31.27;;;13.02;;
46701;SDS011;33449;50.712;7.124;2023-02-08T01:40:08;30.15;;;13.13;;
46701;SDS011;33449;50.712;7.124;2023-02-08T01:46:04;31.85;;;14.57;;
46701;SDS011;33449;50.712;7.124;2023-02-08T02:13:14;22.15;;;11.45;;
46701;SDS011;33449;50.712;7.124;2023-02-08T02:15:57;25.75;;;12.32;;
46701;SDS011;33449;50.712;7.124;2023-02-08T02:18:39;26.83;;;14.77;;
46701;SDS011;33449;50.712;7.124;2023-02-08T02:54:03;25.25;;;11.98;;
46701;SDS011;33449;50.712;7.124;2023-02-08T03:16:18;29.77;;;13.68;;
46701;SDS011;33449;50.712;7.124;2023-02-08T03:19:08;27.75;;;12.43;;
46701;SDS011;33449;50.712;7.124;2023-02-08T03:22:15;25.20;;;11.90;;
46701;SDS011;33449;50.712;7.124;2023-02-08T03:24:48;27.52;;;12.82;;
46701;SDS011;33449;50.712;7.124;2023-02-08T03:27:26;31.05;;;14.15;;
46701;SDS011;33449;50.712;7.124;2023-02-08T03:30:02;35.65;;;14.85;;
46701;SDS011;33449;50.712;7.124;2023-02-08T03:32:39;31.65;;;13.77;;
46701;SDS011;33449;50.712;7.124;2023-02-08T03:35:32;27.27;;;13.55;;
46701;SDS011;33449;50.712;7.124;2023-02-08T03:38:12;29.65;;;13.10;;
46701;SDS011;33449;50.712;7.124;2023-02-08T03:40:45;27.15;;;14.15;;
46701;SDS011;33449;50.712;7.124;2023-02-08T03:43:15;27.60;;;13.27;;
46701;SDS011;33449;50.712;7.124;2023-02-08T03:45:53;29.55;;;13.40;;
46701;SDS011;33449;50.712;7.124;2023-02-08T03:48:21;30.85;;;14.00;;
46701;SDS011;33449;50.712;7.124;2023-02-08T03:50:49;25.35;;;13.88;;
46701;SDS011;33449;50.712;7.124;2023-02-08T03:56:07;29.90;;;14.35;;
46701;SDS011;33449;50.712;7.124;2023-02-08T03:58:57;27.70;;;14.60;;
46701;SDS011;33449;50.712;7.124;2023-02-08T04:01:29;32.58;;;15.02;;
46701;SDS011;33449;50.712;7.124;2023-02-08T04:04:06;31.17;;;14.32;;
46701;SDS011;33449;50.712;7.124;2023-02-08T04:06:33;29.92;;;14.95;;
46701;SDS011;33449;50.712;7.124;2023-02-08T04:09:00;25.52;;;13.60;;
46701;SDS011;33449;50.712;7.124;2023-02-08T04:13:58;31.38;;;13.77;;
46701;SDS011;33449;50.712;7.124;2023-02-08T04:16:27;25.10;;;13.20;;
46701;SDS011;33449;50.712;7.124;2023-02-08T04:18:55;30.88;;;13.88;;
46701;SDS011;33449;50.712;7.124;2023-02-08T04:21:22;30.20;;;13.73;;
46701;SDS011;33449;50.712;7.124;2023-02-08T04:23:49;30.70;;;14.27;;
46701;SDS011;33449;50.712;7.124;2023-02-08T04:28:48;28.00;;;13.75;;
46701;SDS011;33449;50.712;7.124;2023-02-08T04:31:15;29.55;;;13.60;;
46701;SDS011;33449;50.712;7.124;2023-02-08T04:33:42;29.88;;;14.38;;
46701;SDS011;33449;50.712;7.124;2023-02-08T04:36:09;30.88;;;14.93;;
46701;SDS011;33449;50.712;7.124;2023-02-08T04:43:49;30.08;;;13.70;;
46701;SDS011;33449;50.712;7.124;2023-02-08T04:46:16;31.70;;;15.50;;
46701;SDS011;33449;50.712;7.124;2023-02-08T04:48:43;31.10;;;14.70;;
46701;SDS011;33449;50.712;7.124;2023-02-08T04:51:10;33.40;;;15.52;;
46701;SDS011;33449;50.712;7.124;2023-02-08T04:53:37;29.98;;;15.32;;
46701;SDS011;33449;50.712;7.124;2023-02-08T04:58:46;28.70;;;15.25;;
46701;SDS011;33449;50.712;7.124;2023-02-08T05:01:13;27.77;;;13.05;;
46701;SDS011;33449;50.712;7.124;2023-02-08T05:03:44;30.92;;;15.98;;
46701;SDS011;33449;50.712;7.124;2023-02-08T05:06:15;34.00;;;15.68;;
46701;SDS011;33449;50.712;7.124;2023-02-08T05:08:42;35.47;;;13.80;;
46701;SDS011;33449;50.712;7.124;2023-02-08T05:13:44;29.88;;;14.63;;
46701;SDS011;33449;50.712;7.124;2023-02-08T05:21:51;32.97;;;14.82;;
46701;SDS011;33449;50.712;7.124;2023-02-08T05:24:20;34.80;;;15.82;;
46701;SDS011;33449;50.712;7.124;2023-02-08T05:26:53;29.52;;;14.55;;
46701;SDS011;33449;50.712;7.124;2023-02-08T05:29:20;33.60;;;14.30;;
46701;SDS011;33449;50.712;7.124;2023-02-08T05:31:53;31.13;;;15.55;;
46701;SDS011;33449;50.712;7.124;2023-02-08T05:34:23;34.00;;;14.45;;
46701;SDS011;33449;50.712;7.124;2023-02-08T05:36:53;30.27;;;15.20;;
46701;SDS011;33449;50.712;7.124;2023-02-08T05:39:26;33.10;;;14.80;;
46701;SDS011;33449;50.712;7.124;2023-02-08T05:41:53;24.30;;;10.68;;
46701;SDS011;33449;50.712;7.124;2023-02-08T05:49:39;31.98;;;15.20;;
46701;SDS011;33449;50.712;7.124;2023-02-08T05:52:08;26.77;;;14.48;;
46701;SDS011;33449;50.712;7.124;2023-02-08T05:54:37;32.20;;;15.23;;
46701;SDS011;33449;50.712;7.124;2023-02-08T05:57:04;29.48;;;16.00;;
46701;SDS011;33449;50.712;7.124;2023-02-08T05:59:31;30.17;;;15.20;;
46701;SDS011;33449;50.712;7.124;2023-02-08T06:04:29;33.65;;;15.13;;
46701;SDS011;33449;50.712;7.124;2023-02-08T06:06:56;31.00;;;14.85;;
46701;SDS011;33449;50.712;7.124;2023-02-08T06:09:23;40.97;;;16.38;;
46701;SDS011;33449;50.712;7.124;2023-02-08T06:11:50;33.92;;;15.77;;
46701;SDS011;33449;50.712;7.124;2023-02-08T06:14:18;33.80;;;15.95;;
46701;SDS011;33449;50.712;7.124;2023-02-08T06:19:29;27.48;;;15.48;;
46701;SDS011;33449;50.712;7.124;2023-02-08T06:21:57;33.72;;;15.88;;
46701;SDS011;33449;50.712;7.124;2023-02-08T06:24:26;33.05;;;16.38;;
46701;SDS011;33449;50.712;7.124;2023-02-08T06:26:53;29.58;;;15.52;;
46701;SDS011;33449;50.712;7.124;2023-02-08T06:29:20;32.88;;;14.73;;
46701;SDS011;33449;50.712;7.124;2023-02-08T06:42:35;36.63;;;16.02;;
46701;SDS011;33449;50.712;7.124;2023-02-08T06:45:02;35.15;;;17.80;;
46701;SDS011;33449;50.712;7.124;2023-02-08T06:47:30;37.90;;;17.10;;
46701;SDS011;33449;50.712;7.124;2023-02-08T06:49:57;36.05;;;16.55;;
46701;SDS011;33449;50.712;7.124;2023-02-08T06:52:25;34.85;;;16.90;;
46701;SDS011;33449;50.712;7.124;2023-02-08T06:54:54;32.58;;;15.23;;
46701;SDS011;33449;50.712;7.124;2023-02-08T06:57:21;35.53;;;16.23;;
46701;SDS011;33449;50.712;7.124;2023-02-08T06:59:48;35.53;;;15.73;;
46701;SDS011;33449;50.712;7.124;2023-02-08T07:02:16;33.40;;;15.85;;
46701;SDS011;33449;50.712;7.124;2023-02-08T07:07:18;32.55;;;15.90;;
46701;SDS011;33449;50.712;7.124;2023-02-08T07:09:45;34.20;;;15.38;;
46701;SDS011;33449;50.712;7.124;2023-02-08T07:12:12;34.63;;;15.93;;
46701;SDS011;33449;50.712;7.124;2023-02-08T07:14:42;36.37;;;16.87;;
46701;SDS011;33449;50.712;7.124;2023-02-08T07:17:09;42.20;;;16.67;;
46701;SDS011;33449;50.712;7.124;2023-02-08T07:27:30;26.42;;;12.55;;
46701;SDS011;33449;50.712;7.124;2023-02-08T07:29:57;30.02;;;14.82;;
46701;SDS011;33449;50.712;7.124;2023-02-08T07:32:25;37.80;;;17.27;;
46701;SDS011;33449;50.712;7.124;2023-02-08T07:34:54;30.88;;;17.23;;
46701;SDS011;33449;50.712;7.124;2023-02-08T07:37:21;29.85;;;16.23;;
46701;SDS011;33449;50.712;7.124;2023-02-08T07:39:48;34.47;;;17.55;;
46701;SDS011;33449;50.712;7.124;2023-02-08T07:42:16;38.33;;;16.52;;
46701;SDS011;33449;50.712;7.124;2023-02-08T07:44:43;30.77;;;16.40;;
46701;SDS011;33449;50.712;7.124;2023-02-08T07:47:10;33.75;;;16.50;;
46701;SDS011;33449;50.712;7.124;2023-02-08T07:52:10;39.30;;;16.52;;
46701;SDS011;33449;50.712;7.124;2023-02-08T07:54:37;32.97;;;17.35;;
46701;SDS011;33449;50.712;7.124;2023-02-08T07:57:04;36.67;;;15.73;;
46701;SDS011;33449;50.712;7.124;2023-02-08T07:59:34;35.75;;;16.45;;
46701;SDS011;33449;50.712;7.124;2023-02-08T08:02:01;35.50;;;15.70;;
46701;SDS011;33449;50.712;7.124;2023-02-08T08:07:20;27.63;;;14.15;;
46701;SDS011;33449;50.712;7.124;2023-02-08T08:09:47;36.47;;;15.52;;
46701;SDS011;33449;50.712;7.124;2023-02-08T08:12:14;33.35;;;15.80;;
46701;SDS011;33449;50.712;7.124;2023-02-08T08:14:43;33.00;;;15.10;;
46701;SDS011;33449;50.712;7.124;2023-02-08T08:17:10;31.38;;;15.85;;
46701;SDS011;33449;50.712;7.124;2023-02-08T08:19:40;30.58;;;15.45;;
46701;SDS011;33449;50.712;7.124;2023-02-08T08:22:07;32.33;;;15.60;;
46701;SDS011;33449;50.712;7.124;2023-02-08T08:24:34;36.55;;;15.75;;
46701;SDS011;33449;50.712;7.124;2023-02-08T08:27:02;28.73;;;14.15;;
46701;SDS011;33449;50.712;7.124;2023-02-08T08:29:30;33.60;;;16.20;;
46701;SDS011;33449;50.712;7.124;2023-02-08T08:31:58;32.15;;;15.93;;
46701;SDS011;33449;50.712;7.124;2023-02-08T08:34:25;35.83;;;15.82;;
46701;SDS011;33449;50.712;7.124;2023-02-08T08:36:56;37.45;;;17.30;;
46701;SDS011;33449;50.712;7.124;2023-02-08T08:39:25;32.20;;;14.77;;
46701;SDS011;33449;50.712;7.124;2023-02-08T08:41:55;29.73;;;14.23;;
46701;SDS011;33449;50.712;7.124;2023-02-08T08:44:23;32.90;;;15.33;;
46701;SDS011;33449;50.712;7.124;2023-02-08T08:46:52;28.13;;;14.48;;
46701;SDS011;33449;50.712;7.124;2023-02-08T08:51:52;26.90;;;14.30;;
46701;SDS011;33449;50.712;7.124;2023-02-08T08:54:19;31.17;;;13.45;;
46701;SDS011;33449;50.712;7.124;2023-02-08T08:56:48;29.98;;;14.52;;
46701;SDS011;33449;50.712;7.124;2023-02-08T08:59:15;30.05;;;13.68;;
46701;SDS011;33449;50.712;7.124;2023-02-08T09:01:42;21.73;;;13.02;;
46701;SDS011;33449;50.712;7.124;2023-02-08T09:04:09;33.03;;;12.98;;
46701;SDS011;33449;50.712;7.124;2023-02-08T09:06:37;25.90;;;12.65;;
46701;SDS011;33449;50.712;7.124;2023-02-08T09:09:04;26.08;;;13.27;;
46701;SDS011;33449;50.712;7.124;2023-02-08T09:11:31;27.98;;;14.98;;
46701;SDS011;33449;50.712;7.124;2023-02-08T09:14:02;25.80;;;13.80;;
46701;SDS011;33449;50.712;7.124;2023-02-08T09:16:30;30.40;;;12.50;;
46701;SDS011;33449;50.712;7.124;2023-02-08T09:19:00;21.38;;;12.00;;
46701;SDS011;33449;50.712;7.124;2023-02-08T09:21:27;22.52;;;11.02;;
46701;SDS011;33449;50.712;7.124;2023-02-08T09:23:55;22.48;;;10.55;;
46701;SDS011;33449;50.712;7.124;2023-02-08T09:26:22;25.25;;;11.98;;
46701;SDS011;33449;50.712;7.124;2023-02-08T09:28:51;21.13;;;12.18;;
46701;SDS011;33449;50.712;7.124;2023-02-08T09:31:20;22.95;;;11.35;;
46701;SDS011;33449;50.712;7.124;2023-02-08T09:33:49;22.50;;;11.80;;
46701;SDS011;33449;50.712;7.124;2023-02-08T09:36:16;22.20;;;9.20;;
46701;SDS011;33449;50.712;7.124;2023-02-08T09:38:44;19.60;;;9.60;;
46701;SDS011;33449;50.712;7.124;2023-02-08T09:46:16;17.63;;;10.38;;
46701;SDS011;33449;50.712;7.124;2023-02-08T09:48:44;19.90;;;11.20;;
46701;SDS011;33449;50.712;7.124;2023-02-08T09:51:25;21.27;;;10.50;;
46701;SDS011;33449;50.712;7.124;2023-02-08T09:53:56;21.27;;;11.02;;
46701;SDS011;33449;50.712;7.124;2023-02-08T09:58:52;16.50;;;9.15;;
46701;SDS011;33449;50.712;7.124;2023-02-08T10:01:21;14.23;;;8.88;;
46701;SDS011;33449;50.712;7.124;2023-02-08T10:03:51;20.05;;;9.50;;
46701;SDS011;33449;50.712;7.124;2023-02-08T10:06:19;18.45;;;9.27;;
46701;SDS011;33449;50.712;7.124;2023-02-08T10:08:47;20.52;;;10.10;;
46701;SDS011;33449;50.712;7.124;2023-02-08T10:16:37;18.88;;;9.05;;
46701;SDS011;33449;50.712;7.124;2023-02-08T10:19:28;17.95;;;8.50;;
46701;SDS011;33449;50.712;7.124;2023-02-08T10:27:13;16.40;;;8.68;;
46701;SDS011;33449;50.712;7.124;2023-02-08T10:32:33;18.20;;;8.45;;
46701;SDS011;33449;50.712;7.124;2023-02-08T10:35:24;19.63;;;8.93;;
46701;SDS011;33449;50.712;7.124;2023-02-08T10:37:51;13.75;;;8.15;;
46701;SDS011;33449;50.712;7.124;2023-02-08T10:40:37;19.10;;;7.80;;
46701;SDS011;33449;50.712;7.124;2023-02-08T10:43:18;15.13;;;7.65;;
46701;SDS011;33449;50.712;7.124;2023-02-08T10:45:48;14.13;;;7.53;;
46701;SDS011;33449;50.712;7.124;2023-02-08T10:49:05;17.88;;;8.25;;
46701;SDS011;33449;50.712;7.124;2023-02-08T10:51:05;17.30;;;7.80;;
46701;SDS011;33449;50.712;7.124;2023-02-08T10:53:35;14.23;;;7.73;;
46701;SDS011;33449;50.712;7.124;2023-02-08T10:56:02;14.77;;;7.45;;
46701;SDS011;33449;50.712;7.124;2023-02-08T10:58:29;15.77;;;7.50;;
46701;SDS011;33449;50.712;7.124;2023-02-08T11:00:57;16.05;;;7.20;;
46701;SDS011;33449;50.712;7.124;2023-02-08T11:03:27;13.48;;;7.30;;
46701;SDS011;33449;50.712;7.124;2023-02-08T11:05:54;15.63;;;8.40;;
46701;SDS011;33449;50.712;7.124;2023-02-08T11:08:23;15.80;;;7.10;;
46701;SDS011;33449;50.712;7.124;2023-02-08T11:13:20;13.27;;;6.80;;
46701;SDS011;33449;50.712;7.124;2023-02-08T11:18:22;11.77;;;5.97;;
46701;SDS011;33449;50.712;7.124;2023-02-08T11:21:00;12.90;;;6.75;;
46701;SDS011;33449;50.712;7.124;2023-02-08T11:23:32;12.73;;;5.50;;
46701;SDS011;33449;50.712;7.124;2023-02-08T11:26:16;14.52;;;7.53;;
46701;SDS011;33449;50.712;7.124;2023-02-08T11:28:43;16.25;;;6.97;;
46701;SDS011;33449;50.712;7.124;2023-02-08T11:31:15;15.02;;;6.90;;
46701;SDS011;33449;50.712;7.124;2023-02-08T11:36:44;12.93;;;5.57;;
46701;SDS011;33449;50.712;7.124;2023-02-08T11:41:48;12.75;;;7.18;;
46701;SDS011;33449;50.712;7.124;2023-02-08T11:44:40;13.98;;;6.57;;
46701;SDS011;33449;50.712;7.124;2023-02-08T11:47:04;10.20;;;6.40;;
46701;SDS011;33449;50.712;7.124;2023-02-08T11:49:36;11.80;;;5.65;;
46701;SDS011;33449;50.712;7.124;2023-02-08T11:52:04;11.90;;;5.80;;
46701;SDS011;33449;50.712;7.124;2023-02-08T11:54:39;13.65;;;6.13;;
46701;SDS011;33449;50.712;7.124;2023-02-08T11:57:11;17.15;;;6.45;;
46701;SDS011;33449;50.712;7.124;2023-02-08T11:59:38;10.93;;;6.25;;
46701;SDS011;33449;50.712;7.124;2023-02-08T12:02:26;9.25;;;4.63;;
46701;SDS011;33449;50.712;7.124;2023-02-08T12:04:54;14.93;;;5.65;;
46701;SDS011;33449;50.712;7.124;2023-02-08T12:15:19;12.60;;;5.70;;
46701;SDS011;33449;50.712;7.124;2023-02-08T12:20:32;10.23;;;5.95;;
46701;SDS011;33449;50.712;7.124;2023-02-08T12:23:23;13.38;;;6.18;;
46701;SDS011;33449;50.712;7.124;2023-02-08T12:33:55;9.02;;;5.32;;
46701;SDS011;33449;50.712;7.124;2023-02-08T12:50:21;14.45;;;5.53;;
46701;SDS011;33449;50.712;7.124;2023-02-08T12:52:32;12.48;;;5.55;;
46701;SDS011;33449;50.712;7.124;2023-02-08T12:57:41;11.52;;;5.53;;
46701;SDS011;33449;50.712;7.124;2023-02-08T13:00:15;12.77;;;5.40;;
46701;SDS011;33449;50.712;7.124;2023-02-08T13:05:38;11.55;;;5.18;;
46701;SDS011;33449;50.712;7.124;2023-02-08T13:10:45;9.27;;;5.32;;
46701;SDS011;33449;50.712;7.124;2023-02-08T13:13:17;12.65;;;5.63;;
46701;SDS011;33449;50.712;7.124;2023-02-08T13:15:47;10.13;;;5.20;;
46701;SDS011;33449;50.712;7.124;2023-02-08T13:20:56;10.95;;;5.50;;
46701;SDS011;33449;50.712;7.124;2023-02-08T13:23:31;12.32;;;6.28;;
46701;SDS011;33449;50.712;7.124;2023-02-08T13:26:29;9.38;;;4.78;;
46701;SDS011;33449;50.712;7.124;2023-02-08T13:28:58;9.68;;;4.95;;
46701;SDS011;33449;50.712;7.124;2023-02-08T13:31:28;11.20;;;5.80;;
46701;SDS011;33449;50.712;7.124;2023-02-08T13:33:58;11.25;;;5.60;;
46701;SDS011;33449;50.712;7.124;2023-02-08T13:36:37;8.73;;;4.85;;
46701;SDS011;33449;50.712;7.124;2023-02-08T13:39:06;9.90;;;5.45;;
46701;SDS011;33449;50.712;7.124;2023-02-08T13:41:34;9.95;;;4.93;;
46701;SDS011;33449;50.712;7.124;2023-02-08T13:44:03;11.15;;;4.78;;
46701;SDS011;33449;50.712;7.124;2023-02-08T13:46:35;11.55;;;5.50;;
46701;SDS011;33449;50.712;7.124;2023-02-08T13:49:04;10.88;;;4.75;;
46701;SDS011;33449;50.712;7.124;2023-02-08T13:56:45;7.28;;;4.07;;
46701;SDS011;33449;50.712;7.124;2023-02-08T14:04:37;9.82;;;5.07;;
46701;SDS011;33449;50.712;7.124;2023-02-08T14:07:10;8.55;;;4.80;;
46701;SDS011;33449;50.712;7.124;2023-02-08T14:09:45;12.98;;;6.22;;
46701;SDS011;33449;50.712;7.124;2023-02-08T14:14:44;10.88;;;5.15;;
46701;SDS011;33449;50.712;7.124;2023-02-08T14:18:04;12.30;;;5.45;;
46701;SDS011;33449;50.712;7.124;2023-02-08T14:20:44;11.52;;;5.90;;
46701;SDS011;33449;50.712;7.124;2023-02-08T14:23:21;9.05;;;5.72;;
46701;SDS011;33449;50.712;7.124;2023-02-08T14:25:49;11.90;;;5.57;;
46701;SDS011;33449;50.712;7.124;2023-02-08T14:28:24;11.10;;;5.95;;
46701;SDS011;33449;50.712;7.124;2023-02-08T14:30:53;15.07;;;5.75;;
46701;SDS011;33449;50.712;7.124;2023-02-08T14:44:53;9.00;;;4.00;;
46701;SDS011;33449;50.712;7.124;2023-02-08T14:49:51;11.73;;;5.45;;
46701;SDS011;33449;50.712;7.124;2023-02-08T14:52:21;13.38;;;5.97;;
46701;SDS011;33449;50.712;7.124;2023-02-08T14:54:52;11.77;;;5.13;;
46701;SDS011;33449;50.712;7.124;2023-02-08T14:59:46;7.30;;;4.53;;
46701;SDS011;33449;50.712;7.124;2023-02-08T15:10:22;7.75;;;4.60;;
46701;SDS011;33449;50.712;7.124;2023-02-08T15:12:59;9.63;;;4.35;;
46701;SDS011;33449;50.712;7.124;2023-02-08T15:15:30;9.25;;;5.05;;
46701;SDS011;33449;50.712;7.124;2023-02-08T15:18:03;13.90;;;5.18;;
46701;SDS011;33449;50.712;7.124;2023-02-08T15:20:33;8.93;;;4.78;;
46701;SDS011;33449;50.712;7.124;2023-02-08T15:23:16;10.98;;;4.68;;
46701;SDS011;33449;50.712;7.124;2023-02-08T15:26:14;8.93;;;4.15;;
46701;SDS011;33449;50.712;7.124;2023-02-08T15:28:48;8.93;;;4.90;;
46701;SDS011;33449;50.712;7.124;2023-02-08T15:31:25;9.73;;;4.68;;
46701;SDS011;33449;50.712;7.124;2023-02-08T15:34:02;11.18;;;4.78;;
46701;SDS011;33449;50.712;7.124;2023-02-08T15:36:34;8.68;;;4.57;;
46701;SDS011;33449;50.712;7.124;2023-02-08T15:39:08;9.38;;;4.43;;
46701;SDS011;33449;50.712;7.124;2023-02-08T15:41:56;11.85;;;4.95;;
46701;SDS011;33449;50.712;7.124;2023-02-08T15:44:29;7.93;;;4.30;;
46701;SDS011;33449;50.712;7.124;2023-02-08T15:47:17;11.35;;;4.90;;
46701;SDS011;33449;50.712;7.124;2023-02-08T15:50:14;8.55;;;4.55;;
46701;SDS011;33449;50.712;7.124;2023-02-08T15:56:28;12.57;;;4.30;;
46701;SDS011;33449;50.712;7.124;2023-02-08T15:59:15;9.48;;;4.53;;
46701;SDS011;33449;50.712;7.124;2023-02-08T16:02:10;7.00;;;3.92;;
46701;SDS011;33449;50.712;7.124;2023-02-08T16:05:01;8.63;;;4.07;;
46701;SDS011;33449;50.712;7.124;2023-02-08T16:07:57;11.50;;;5.38;;
46701;SDS011;33449;50.712;7.124;2023-02-08T16:10:42;10.35;;;3.97;;
46701;SDS011;33449;50.712;7.124;2023-02-08T16:13:28;10.30;;;4.47;;
46701;SDS011;33449;50.712;7.124;2023-02-08T16:16:17;10.43;;;5.15;;
46701;SDS011;33449;50.712;7.124;2023-02-08T16:18:55;8.95;;;4.93;;
46701;SDS011;33449;50.712;7.124;2023-02-08T16:21:39;9.95;;;4.78;;
46701;SDS011;33449;50.712;7.124;2023-02-08T16:26:53;14.43;;;4.68;;
46701;SDS011;33449;50.712;7.124;2023-02-08T16:32:24;10.25;;;4.40;;
46701;SDS011;33449;50.712;7.124;2023-02-08T16:34:52;10.93;;;4.20;;
46701;SDS011;33449;50.712;7.124;2023-02-08T16:37:31;12.52;;;4.68;;
46701;SDS011;33449;50.712;7.124;2023-02-08T16:40:39;13.63;;;4.38;;
46701;SDS011;33449;50.712;7.124;2023-02-08T16:45:48;10.50;;;4.82;;
46701;SDS011;33449;50.712;7.124;2023-02-08T16:48:39;10.45;;;4.43;;
46701;SDS011;33449;50.712;7.124;2023-02-08T16:51:09;12.68;;;5.03;;
46701;SDS011;33449;50.712;7.124;2023-02-08T16:53:38;13.35;;;5.45;;
46701;SDS011;33449;50.712;7.124;2023-02-08T16:56:12;11.35;;;4.93;;
46701;SDS011;33449;50.712;7.124;2023-02-08T16:58:40;12.30;;;5.43;;
46701;SDS011;33449;50.712;7.124;2023-02-08T17:01:11;11.57;;;6.13;;
46701;SDS011;33449;50.712;7.124;2023-02-08T17:03:56;15.57;;;5.75;;
46701;SDS011;33449;50.712;7.124;2023-02-08T17:06:34;9.95;;;4.55;;
46701;SDS011;33449;50.712;7.124;2023-02-08T17:09:02;9.93;;;4.78;;
46701;SDS011;33449;50.712;7.124;2023-02-08T17:11:34;10.10;;;5.22;;
46701;SDS011;33449;50.712;7.124;2023-02-08T17:14:14;15.55;;;6.25;;
46701;SDS011;33449;50.712;7.124;2023-02-08T17:16:51;12.77;;;6.53;;
46701;SDS011;33449;50.712;7.124;2023-02-08T17:19:21;11.70;;;5.90;;
46701;SDS011;33449;50.712;7.124;2023-02-08T17:22:11;15.38;;;6.90;;
46701;SDS011;33449;50.712;7.124;2023-02-08T17:24:47;13.88;;;6.63;;
46701;SDS011;33449;50.712;7.124;2023-02-08T17:27:17;11.80;;;6.40;;
46701;SDS011;33449;50.712;7.124;2023-02-08T17:29:49;11.32;;;5.82;;
46701;SDS011;33449;50.712;7.124;2023-02-08T17:32:23;13.77;;;6.43;;
46701;SDS011;33449;50.712;7.124;2023-02-08T17:34:56;13.32;;;6.47;;
46701;SDS011;33449;50.712;7.124;2023-02-08T17:37:29;14.13;;;6.45;;
46701;SDS011;33449;50.712;7.124;2023-02-08T17:40:07;17.25;;;7.90;;
46701;SDS011;33449;50.712;7.124;2023-02-08T17:42:40;17.02;;;6.82;;
46701;SDS011;33449;50.712;7.124;2023-02-08T17:45:12;17.98;;;6.80;;
46701;SDS011;33449;50.712;7.124;2023-02-08T17:47:47;18.42;;;7.90;;
46701;SDS011;33449;50.712;7.124;2023-02-08T17:50:31;13.25;;;6.68;;
46701;SDS011;33449;50.712;7.124;2023-02-08T17:53:04;13.35;;;7.10;;
46701;SDS011;33449;50.712;7.124;2023-02-08T17:55:39;16.15;;;7.25;;
46701;SDS011;33449;50.712;7.124;2023-02-08T17:58:10;23.45;;;9.82;;
46701;SDS011;33449;50.712;7.124;2023-02-08T18:03:12;18.08;;;8.75;;
46701;SDS011;33449;50.712;7.124;2023-02-08T18:05:57;17.48;;;8.35;;
46701;SDS011;33449;50.712;7.124;2023-02-08T18:08:31;18.98;;;8.73;;
46701;SDS011;33449;50.712;7.124;2023-02-08T18:11:04;20.05;;;8.60;;
46701;SDS011;33449;50.712;7.124;2023-02-08T18:13:34;19.15;;;9.55;;
46701;SDS011;33449;50.712;7.124;2023-02-08T18:18:32;17.67;;;8.00;;
46701;SDS011;33449;50.712;7.124;2023-02-08T18:20:59;16.83;;;8.75;;
46701;SDS011;33449;50.712;7.124;2023-02-08T18:26:11;18.67;;;8.00;;
46701;SDS011;33449;50.712;7.124;2023-02-08T18:28:46;18.98;;;8.20;;
46701;SDS011;33449;50.712;7.124;2023-02-08T18:31:17;17.45;;;8.18;;
46701;SDS011;33449;50.712;7.124;2023-02-08T18:33:45;14.82;;;8.05;;
46701;SDS011;33449;50.712;7.124;2023-02-08T18:36:16;14.48;;;7.18;;
46701;SDS011;33449;50.712;7.124;2023-02-08T18:38:44;19.30;;;8.13;;
46701;SDS011;33449;50.712;7.124;2023-02-08T18:41:14;17.20;;;8.38;;
46701;SDS011;33449;50.712;7.124;2023-02-08T18:43:47;14.02;;;7.40;;
46701;SDS011;33449;50.712;7.124;2023-02-08T18:46:18;16.90;;;8.82;;
46701;SDS011;33449;50.712;7.124;2023-02-08T18:48:50;16.38;;;7.43;;
46701;SDS011;33449;50.712;7.124;2023-02-08T18:51:23;13.63;;;7.20;;
46701;SDS011;33449;50.712;7.124;2023-02-08T18:53:53;15.98;;;7.25;;
46701;SDS011;33449;50.712;7.124;2023-02-08T18:56:29;14.43;;;7.00;;
46701;SDS011;33449;50.712;7.124;2023-02-08T18:59:08;21.42;;;8.38;;
46701;SDS011;33449;50.712;7.124;2023-02-08T19:01:37;22.42;;;9.63;;
46701;SDS011;33449;50.712;7.124;2023-02-08T19:04:07;16.00;;;7.40;;
46701;SDS011;33449;50.712;7.124;2023-02-08T19:06:35;19.35;;;8.38;;
46701;SDS011;33449;50.712;7.124;2023-02-08T19:09:04;17.33;;;7.45;;
46701;SDS011;33449;50.712;7.124;2023-02-08T19:11:36;17.98;;;7.97;;
46701;SDS011;33449;50.712;7.124;2023-02-08T19:14:10;19.48;;;8.52;;
46701;SDS011;33449;50.712;7.124;2023-02-08T19:16:38;15.80;;;8.57;;
46701;SDS011;33449;50.712;7.124;2023-02-08T19:19:08;14.10;;;7.82;;
46701;SDS011;33449;50.712;7.124;2023-02-08T19:21:36;16.27;;;8.32;;
46701;SDS011;33449;50.712;7.124;2023-02-08T19:24:04;20.85;;;7.20;;
46701;SDS011;33449;50.712;7.124;2023-02-08T19:26:32;15.45;;;6.93;;
46701;SDS011;33449;50.712;7.124;2023-02-08T19:29:02;17.33;;;8.35;;
46701;SDS011;33449;50.712;7.124;2023-02-08T19:31:34;13.77;;;6.93;;
46701;SDS011;33449;50.712;7.124;2023-02-08T19:34:04;15.43;;;7.15;;
46701;SDS011;33449;50.712;7.124;2023-02-08T19:36:33;15.85;;;7.35;;
46701;SDS011;33449;50.712;7.124;2023-02-08T19:39:03;14.80;;;6.72;;
46701;SDS011;33449;50.712;7.124;2023-02-08T19:41:36;14.80;;;6.18;;
46701;SDS011;33449;50.712;7.124;2023-02-08T19:44:07;10.82;;;5.60;;
46701;SDS011;33449;50.712;7.124;2023-02-08T19:46:38;14.73;;;7.13;;
46701;SDS011;33449;50.712;7.124;2023-02-08T19:49:10;13.05;;;6.43;;
46701;SDS011;33449;50.712;7.124;2023-02-08T19:51:37;14.90;;;5.55;;
46701;SDS011;33449;50.712;7.124;2023-02-08T19:54:11;14.32;;;6.93;;
46701;SDS011;33449;50.712;7.124;2023-02-08T19:56:41;16.00;;;7.43;;
46701;SDS011;33449;50.712;7.124;2023-02-08T19:59:26;12.57;;;6.70;;
46701;SDS011;33449;50.712;7.124;2023-02-08T20:01:55;12.27;;;6.38;;
46701;SDS011;33449;50.712;7.124;2023-02-08T20:04:27;13.82;;;7.15;;
46701;SDS011;33449;50.712;7.124;2023-02-08T20:09:28;15.10;;;6.78;;
46701;SDS011;33449;50.712;7.124;2023-02-08T20:11:55;9.55;;;5.10;;
46701;SDS011;33449;50.712;7.124;2023-02-08T20:14:27;12.15;;;6.50;;
46701;SDS011;33449;50.712;7.124;2023-02-08T20:17:01;15.85;;;6.13;;
46701;SDS011;33449;50.712;7.124;2023-02-08T20:19:28;18.27;;;7.20;;
46701;SDS011;33449;50.712;7.124;2023-02-08T20:22:00;14.60;;;6.95;;
46701;SDS011;33449;50.712;7.124;2023-02-08T20:24:33;15.85;;;7.35;;
46701;SDS011;33449;50.712;7.124;2023-02-08T20:27:00;19.42;;;8.20;;
46701;SDS011;33449;50.712;7.124;2023-02-08T20:29:36;23.88;;;7.70;;
46701;SDS011;33449;50.712;7.124;2023-02-08T20:32:08;14.38;;;5.75;;
46701;SDS011;33449;50.712;7.124;2023-02-08T20:34:35;18.65;;;7.47;;
46701;SDS011;33449;50.712;7.124;2023-02-08T20:37:07;13.35;;;6.60;;
46701;SDS011;33449;50.712;7.124;2023-02-08T20:39:40;17.38;;;8.10;;
46701;SDS011;33449;50.712;7.124;2023-02-08T20:42:09;20.42;;;8.85;;
46701;SDS011;33449;50.712;7.124;2023-02-08T20:44:39;15.35;;;7.30;;
46701;SDS011;33449;50.712;7.124;2023-02-08T20:47:08;17.00;;;7.25;;
46701;SDS011;33449;50.712;7.124;2023-02-08T20:49:46;22.92;;;8.43;;
46701;SDS011;33449;50.712;7.124;2023-02-08T20:52:19;10.48;;;5.00;;
46701;SDS011;33449;50.712;7.124;2023-02-08T20:54:57;18.80;;;7.85;;
46701;SDS011;33449;50.712;7.124;2023-02-08T20:57:28;15.77;;;7.63;;
46701;SDS011;33449;50.712;7.124;2023-02-08T20:59:58;16.92;;;7.07;;
46701;SDS011;33449;50.712;7.124;2023-02-08T21:02:25;14.80;;;7.35;;
46701;SDS011;33449;50.712;7.124;2023-02-08T21:04:58;10.23;;;4.10;;
46701;SDS011;33449;50.712;7.124;2023-02-08T21:07:25;19.30;;;7.35;;
46701;SDS011;33449;50.712;7.124;2023-02-08T21:09:58;15.65;;;5.80;;
46701;SDS011;33449;50.712;7.124;2023-02-08T21:12:29;19.58;;;7.50;;